createdAt,value
2019-04-13T00:01:21.295Z,11.70
2019-04-13T00:03:49.727Z,11.83
2019-04-13T00:06:25.597Z,13.20
2019-04-13T00:08:54.020Z,12.10
2019-04-13T00:11:32.659Z,12.40
2019-04-13T00:14:01.116Z,14.60
2019-04-13T00:16:29.674Z,13.03
2019-04-13T00:18:58.096Z,13.23
2019-04-13T00:21:26.501Z,14.33
2019-04-13T00:23:54.980Z,12.73
2019-04-13T00:26:23.388Z,13.90
2019-04-13T00:28:51.835Z,12.10
2019-04-13T00:31:20.246Z,13.10
2019-04-13T00:33:48.651Z,12.90
2019-04-13T00:36:17.070Z,12.63
2019-04-13T00:38:45.463Z,12.90
2019-04-13T00:41:13.969Z,14.30
2019-04-13T00:43:42.363Z,13.73
2019-04-13T00:46:10.763Z,13.80
2019-04-13T00:48:39.184Z,12.70
2019-04-13T00:51:07.766Z,13.93
2019-04-13T00:53:36.186Z,14.13
2019-04-13T00:56:04.652Z,14.10
2019-04-13T00:58:33.066Z,12.50
2019-04-13T01:01:01.493Z,12.90
2019-04-13T01:03:29.912Z,14.33
2019-04-13T01:05:58.406Z,13.80
2019-04-13T01:08:26.815Z,13.30
2019-04-13T01:10:55.314Z,13.87
2019-04-13T01:13:23.705Z,14.00
2019-04-13T01:15:52.107Z,14.40
2019-04-13T01:18:20.580Z,13.63
2019-04-13T01:20:49.006Z,13.57
2019-04-13T01:23:17.425Z,14.00
2019-04-13T01:25:45.846Z,14.37
2019-04-13T01:28:14.299Z,15.20
2019-04-13T01:30:42.720Z,15.63
2019-04-13T01:33:11.124Z,13.97
2019-04-13T01:35:39.544Z,15.43
2019-04-13T01:38:08.015Z,14.97
2019-04-13T01:40:36.405Z,15.10
2019-04-13T01:43:04.970Z,15.17
2019-04-13T01:45:33.440Z,15.17
2019-04-13T01:48:01.928Z,14.50
2019-04-13T01:50:30.346Z,17.30
2019-04-13T01:52:58.747Z,14.40
2019-04-13T01:55:27.161Z,14.57
2019-04-13T01:57:55.661Z,15.00
2019-04-13T02:00:28.150Z,15.10
2019-04-13T02:02:56.557Z,15.17
2019-04-13T02:05:42.675Z,14.40
2019-04-13T02:08:24.857Z,14.80
2019-04-13T02:10:55.002Z,15.03
2019-04-13T02:13:23.404Z,15.30
2019-04-13T02:15:51.795Z,14.90
2019-04-13T02:18:20.217Z,14.80
2019-04-13T02:20:48.637Z,14.83
2019-04-13T02:23:17.052Z,12.30
2019-04-13T02:25:45.464Z,15.43
2019-04-13T02:28:13.960Z,15.30
2019-04-13T02:30:42.381Z,16.00
2019-04-13T02:33:10.779Z,14.20
2019-04-13T02:35:39.193Z,14.70
2019-04-13T02:38:07.599Z,14.53
2019-04-13T02:40:36.039Z,16.77
2019-04-13T02:43:04.683Z,16.03
2019-04-13T02:45:33.118Z,16.87
2019-04-13T02:48:01.523Z,16.53
2019-04-13T02:50:29.930Z,15.87
2019-04-13T02:52:58.331Z,16.50
2019-04-13T02:55:26.794Z,17.30
2019-04-13T02:57:55.195Z,16.97
2019-04-13T03:00:23.721Z,16.23
2019-04-13T03:02:52.558Z,15.67
2019-04-13T03:05:21.051Z,16.93
2019-04-13T03:07:49.529Z,18.50
2019-04-13T03:10:18.013Z,17.70
2019-04-13T03:12:46.521Z,17.93
2019-04-13T03:15:15.306Z,17.70
2019-04-13T03:17:45.522Z,17.00
2019-04-13T03:20:27.543Z,17.40
2019-04-13T03:22:56.030Z,15.27
2019-04-13T03:25:24.426Z,16.30
2019-04-13T03:27:52.845Z,14.87
2019-04-13T03:30:22.914Z,15.53
2019-04-13T03:32:51.387Z,15.60
2019-04-13T03:35:19.819Z,15.07
2019-04-13T03:37:48.214Z,15.63
2019-04-13T03:40:16.680Z,14.90
2019-04-13T03:42:45.114Z,15.50
2019-04-13T03:45:13.987Z,15.23
2019-04-13T03:47:42.409Z,13.80
2019-04-13T03:50:10.955Z,14.40
2019-04-13T03:52:39.374Z,13.60
2019-04-13T03:55:07.903Z,15.40
2019-04-13T03:57:36.297Z,13.80
2019-04-13T04:00:06.645Z,15.53
2019-04-13T04:02:35.050Z,15.80
2019-04-13T04:05:03.831Z,17.23
2019-04-13T04:07:32.256Z,16.50
2019-04-13T04:10:00.649Z,17.30
2019-04-13T04:12:29.076Z,16.77
2019-04-13T04:14:57.506Z,16.03
2019-04-13T04:17:25.944Z,16.20
2019-04-13T04:19:54.326Z,16.17
2019-04-13T04:22:22.756Z,15.33
2019-04-13T04:24:51.144Z,15.10
2019-04-13T04:27:19.566Z,15.27
2019-04-13T04:29:47.992Z,14.33
2019-04-13T04:32:16.428Z,15.67
2019-04-13T04:34:44.816Z,11.70
2019-04-13T04:37:13.231Z,13.63
2019-04-13T04:39:41.629Z,11.37
2019-04-13T04:42:10.045Z,11.47
2019-04-13T04:44:38.461Z,11.13
2019-04-13T04:47:06.895Z,11.33
2019-04-13T04:49:35.320Z,11.10
2019-04-13T04:52:03.725Z,10.60
2019-04-13T04:54:32.158Z,11.30
2019-04-13T04:57:00.578Z,11.80
2019-04-13T04:59:29.021Z,10.60
2019-04-13T05:01:57.395Z,11.33
2019-04-13T05:04:25.809Z,13.07
2019-04-13T05:06:54.295Z,12.50
2019-04-13T05:09:22.694Z,14.17
2019-04-13T05:11:51.116Z,12.97
2019-04-13T05:14:19.527Z,11.63
2019-04-13T05:16:47.949Z,10.13
2019-04-13T05:19:16.348Z,11.00
2019-04-13T05:21:44.756Z,11.47
2019-04-13T05:24:13.194Z,11.80
2019-04-13T05:26:41.591Z,12.33
2019-04-13T05:29:10.007Z,12.60
2019-04-13T05:31:38.409Z,12.60
2019-04-13T05:34:06.833Z,12.40
2019-04-13T05:36:47.034Z,11.60
2019-04-13T05:39:05.984Z,11.43
2019-04-13T05:41:34.417Z,11.40
2019-04-13T05:44:02.922Z,12.77
2019-04-13T05:46:31.388Z,12.77
2019-04-13T05:48:59.867Z,12.60
2019-04-13T05:51:28.283Z,14.17
2019-04-13T05:53:56.682Z,13.93
2019-04-13T05:56:25.167Z,14.60
2019-04-13T05:59:02.689Z,13.40
2019-04-13T06:01:23.762Z,13.67
2019-04-13T06:03:53.025Z,14.87
2019-04-13T06:06:21.531Z,13.53
2019-04-13T06:08:49.937Z,15.80
2019-04-13T06:11:18.420Z,21.60
2019-04-13T06:13:46.855Z,16.53
2019-04-13T06:16:15.282Z,16.40
2019-04-13T06:18:43.706Z,15.47
2019-04-13T06:21:12.109Z,15.60
2019-04-13T06:23:40.566Z,14.60
2019-04-13T06:26:08.970Z,15.77
2019-04-13T06:28:37.383Z,15.97
2019-04-13T06:31:23.319Z,15.37
2019-04-13T06:33:59.471Z,15.17
2019-04-13T06:36:27.950Z,16.53
2019-04-13T06:38:59.462Z,15.93
2019-04-13T06:41:26.565Z,15.47
2019-04-13T06:43:54.961Z,16.60
2019-04-13T06:46:23.394Z,15.20
2019-04-13T06:48:51.808Z,15.53
2019-04-13T06:51:20.355Z,16.70
2019-04-13T06:53:48.786Z,14.60
2019-04-13T06:56:17.218Z,16.67
2019-04-13T06:58:45.684Z,14.63
2019-04-13T07:01:14.149Z,14.83
2019-04-13T07:03:42.569Z,15.17
2019-04-13T07:06:11.114Z,14.30
2019-04-13T07:08:41.159Z,14.60
2019-04-13T07:11:11.198Z,15.23
2019-04-13T07:13:49.916Z,13.63
2019-04-13T07:16:22.848Z,12.60
2019-04-13T07:18:51.272Z,13.80
2019-04-13T07:21:20.050Z,12.40
2019-04-13T07:23:48.695Z,11.40
2019-04-13T07:26:17.118Z,11.97
2019-04-13T07:28:47.640Z,11.60
2019-04-13T07:31:15.653Z,10.10
2019-04-13T07:33:44.054Z,11.50
2019-04-13T07:36:12.499Z,10.83
2019-04-13T07:38:40.909Z,10.07
2019-04-13T07:41:09.419Z,10.80
2019-04-13T07:43:37.915Z,10.47
2019-04-13T07:46:13.790Z,9.67
2019-04-13T07:48:56.838Z,10.03
2019-04-13T07:54:20.703Z,9.70
2019-04-13T07:56:49.120Z,9.70
2019-04-13T07:59:18.428Z,9.20
2019-04-13T08:01:56.527Z,9.40
2019-04-13T08:04:17.763Z,8.80
2019-04-13T08:06:46.157Z,7.50
2019-04-13T08:09:14.577Z,8.03
2019-04-13T08:11:43.020Z,7.03
2019-04-13T08:14:15.547Z,8.70
2019-04-13T08:16:43.937Z,8.00
2019-04-13T08:19:16.713Z,8.40
2019-04-13T08:21:45.265Z,8.80
2019-04-13T08:24:13.664Z,8.30
2019-04-13T08:26:42.093Z,8.20
2019-04-13T08:29:10.560Z,7.87
2019-04-13T08:31:39.045Z,8.63
2019-04-13T08:34:07.505Z,7.90
2019-04-13T08:36:35.987Z,8.53
2019-04-13T08:39:06.438Z,10.07
2019-04-13T08:41:35.012Z,8.60
2019-04-13T08:44:06.015Z,9.13
2019-04-13T08:46:33.701Z,9.50
2019-04-13T08:49:02.174Z,10.93
2019-04-13T08:51:30.650Z,9.23
2019-04-13T08:53:59.046Z,10.27
2019-04-13T08:56:30.786Z,10.10
2019-04-13T08:58:57.852Z,10.47
2019-04-13T09:01:26.317Z,9.43
2019-04-13T09:03:54.757Z,10.70
2019-04-13T09:06:23.152Z,8.60
2019-04-13T09:08:51.596Z,8.63
2019-04-13T09:11:20.744Z,8.63
2019-04-13T09:13:49.882Z,9.00
2019-04-13T09:16:18.575Z,9.10
2019-04-13T09:18:56.914Z,9.43
2019-04-13T09:21:29.680Z,10.40
2019-04-13T09:23:58.126Z,11.00
2019-04-13T09:26:26.570Z,10.40
2019-04-13T09:28:54.975Z,10.00
2019-04-13T09:31:25.481Z,9.20
2019-04-13T09:33:54.417Z,9.63
2019-04-13T09:36:22.832Z,8.80
2019-04-13T09:38:51.240Z,9.60
2019-04-13T09:41:19.712Z,10.40
2019-04-13T09:43:55.669Z,9.90
2019-04-13T09:46:22.608Z,11.50
2019-04-13T09:48:50.978Z,10.53
2019-04-13T09:51:19.418Z,10.73
2019-04-13T09:53:48.729Z,11.23
2019-04-13T09:56:17.437Z,12.93
2019-04-13T09:58:45.853Z,11.37
2019-04-13T10:01:14.336Z,13.17
2019-04-13T10:03:42.784Z,12.73
2019-04-13T10:06:11.303Z,13.17
2019-04-13T10:08:41.974Z,12.57
2019-04-13T10:11:10.403Z,10.80
2019-04-13T10:13:40.459Z,11.30
2019-04-13T10:16:22.842Z,11.87
2019-04-13T10:18:55.393Z,10.17
2019-04-13T10:21:23.031Z,10.63
2019-04-13T10:23:51.453Z,12.30
2019-04-13T10:26:20.005Z,13.07
2019-04-13T10:28:48.675Z,14.03
2019-04-13T10:31:17.210Z,13.23
2019-04-13T10:33:45.676Z,13.17
2019-04-13T10:36:14.076Z,11.07
2019-04-13T10:38:42.514Z,11.03
2019-04-13T10:41:10.910Z,11.97
2019-04-13T10:43:39.358Z,10.67
2019-04-13T10:46:15.539Z,10.20
2019-04-13T10:49:03.944Z,10.60
2019-04-13T10:51:36.691Z,10.33
2019-04-13T10:54:05.335Z,10.13
2019-04-13T10:56:33.821Z,11.00
2019-04-13T10:59:02.237Z,11.83
2019-04-13T11:01:30.677Z,10.83
2019-04-13T11:03:59.069Z,10.43
2019-04-13T11:06:27.468Z,9.93
2019-04-13T11:08:55.872Z,10.27
2019-04-13T11:11:24.300Z,9.50
2019-04-13T11:13:52.703Z,10.10
2019-04-13T11:16:21.186Z,9.80
2019-04-13T11:18:49.663Z,10.50
2019-04-13T11:21:18.117Z,9.77
2019-04-13T11:23:46.625Z,9.10
2019-04-13T11:26:15.195Z,9.00
2019-04-13T11:28:43.607Z,10.00
2019-04-13T11:31:12.019Z,10.73
2019-04-13T11:33:42.659Z,11.57
2019-04-13T11:36:10.629Z,10.20
2019-04-13T11:38:39.043Z,9.60
2019-04-13T11:41:14.828Z,9.67
2019-04-13T11:43:44.878Z,10.13
2019-04-13T11:46:30.177Z,9.93
2019-04-13T11:49:03.075Z,9.67
2019-04-13T11:51:32.518Z,9.33
2019-04-13T11:54:03.745Z,9.87
2019-04-13T11:56:31.131Z,10.87
2019-04-13T11:58:59.542Z,8.70
2019-04-13T12:01:35.636Z,8.60
2019-04-13T12:04:08.850Z,8.50
2019-04-13T12:06:55.102Z,8.53
2019-04-13T12:09:25.196Z,7.60
2019-04-13T12:12:11.608Z,8.10
2019-04-13T12:14:59.439Z,7.43
2019-04-13T12:17:32.197Z,7.87
2019-04-13T12:20:17.372Z,8.93
2019-04-13T12:22:46.037Z,7.80
2019-04-13T12:25:14.536Z,7.90
2019-04-13T12:27:42.955Z,8.60
2019-04-13T12:30:16.170Z,8.23
2019-04-13T12:32:47.121Z,7.93
2019-04-13T12:35:14.792Z,8.80
2019-04-13T12:37:43.229Z,9.40
2019-04-13T12:40:13.344Z,9.07
2019-04-13T12:42:41.852Z,8.90
2019-04-13T12:45:10.520Z,8.77
2019-04-13T12:47:42.176Z,9.07
2019-04-13T12:50:09.307Z,9.00
2019-04-13T12:52:37.692Z,8.23
2019-04-13T12:55:06.317Z,7.47
2019-04-13T12:57:34.678Z,7.20
2019-04-13T13:00:08.043Z,6.50
2019-04-13T13:02:39.594Z,7.50
2019-04-13T13:05:24.842Z,7.27
2019-04-13T13:07:53.271Z,7.30
2019-04-13T13:10:25.183Z,6.57
2019-04-13T13:12:52.150Z,6.80
2019-04-13T13:15:20.611Z,7.03
2019-04-13T13:17:49.104Z,5.80
2019-04-13T13:20:17.738Z,7.47
2019-04-13T13:22:46.258Z,6.90
2019-04-13T13:25:14.724Z,7.10
2019-04-13T13:27:43.211Z,7.57
2019-04-13T13:30:11.812Z,9.20
2019-04-13T13:32:40.315Z,8.97
2019-04-13T13:35:09.180Z,8.20
2019-04-13T13:37:38.577Z,7.87
2019-04-13T13:40:08.727Z,7.77
2019-04-13T13:42:38.535Z,7.73
2019-04-13T13:45:07.512Z,6.80
2019-04-13T13:47:35.912Z,6.47
2019-04-13T13:50:06.761Z,6.30
2019-04-13T13:52:37.848Z,7.47
2019-04-13T13:55:07.403Z,7.40
2019-04-13T13:57:37.472Z,7.43
2019-04-13T14:00:09.568Z,7.17
2019-04-13T14:02:37.994Z,6.90
2019-04-13T14:05:06.651Z,7.20
2019-04-13T14:07:35.067Z,6.90
2019-04-13T14:10:12.116Z,5.80
2019-04-13T14:12:41.972Z,5.83
2019-04-13T14:15:12.270Z,5.87
2019-04-13T14:17:40.768Z,5.23
2019-04-13T14:20:10.000Z,5.20
2019-04-13T14:22:38.531Z,5.73
2019-04-13T14:25:07.269Z,5.90
2019-04-13T14:27:35.746Z,6.63
2019-04-13T14:30:06.570Z,5.83
2019-04-13T14:32:35.065Z,6.97
2019-04-13T14:35:05.890Z,6.53
2019-04-13T14:37:34.537Z,5.80
2019-04-13T14:40:03.501Z,7.23
2019-04-13T14:42:33.680Z,6.90
2019-04-13T14:45:02.128Z,6.60
2019-04-13T14:47:30.590Z,7.00
2019-04-13T14:49:59.276Z,6.73
2019-04-13T14:52:27.646Z,6.50
2019-04-13T14:54:59.788Z,6.83
2019-04-13T14:57:26.181Z,6.10
2019-04-13T14:59:54.611Z,6.67
2019-04-13T15:02:23.025Z,6.60
2019-04-13T15:04:51.571Z,8.43
2019-04-13T15:07:19.992Z,7.20
2019-04-13T15:09:52.517Z,6.57
2019-04-13T15:12:18.540Z,5.90
2019-04-13T15:14:47.467Z,6.17
2019-04-13T15:17:18.062Z,6.40
2019-04-13T15:20:01.057Z,6.70
2019-04-13T15:22:17.712Z,5.70
2019-04-13T15:24:50.092Z,5.47
2019-04-13T15:27:16.464Z,5.63
2019-04-13T15:29:45.669Z,6.37
2019-04-13T15:32:14.777Z,6.70
2019-04-13T15:34:43.278Z,6.30
2019-04-13T15:37:12.749Z,6.80
2019-04-13T15:39:45.071Z,7.23
2019-04-13T15:42:17.447Z,7.30
2019-04-13T15:44:45.348Z,6.60
2019-04-13T15:47:15.360Z,6.10
2019-04-13T15:49:42.459Z,6.40
2019-04-13T15:52:12.105Z,6.10
2019-04-13T15:54:41.526Z,6.30
2019-04-13T15:57:11.521Z,7.83
2019-04-13T15:59:41.476Z,8.97
2019-04-13T16:02:10.346Z,9.27
2019-04-13T16:04:39.623Z,9.47
2019-04-13T16:07:09.450Z,10.23
2019-04-13T16:09:56.046Z,10.50
2019-04-13T16:12:27.603Z,9.27
2019-04-13T16:14:56.917Z,9.00
2019-04-13T16:17:25.430Z,9.40
2019-04-13T16:19:54.594Z,9.47
2019-04-13T16:22:23.449Z,9.87
2019-04-13T16:24:52.618Z,8.73
2019-04-13T16:27:20.998Z,8.50
2019-04-13T16:30:07.083Z,8.50
2019-04-13T16:32:38.303Z,13.13
2019-04-13T16:35:15.806Z,9.50
2019-04-13T16:37:46.274Z,11.00
2019-04-13T16:40:16.249Z,8.40
2019-04-13T16:42:44.711Z,9.57
2019-04-13T16:45:15.123Z,7.93
2019-04-13T16:47:51.687Z,14.60
2019-04-13T16:50:34.598Z,11.50
2019-04-13T16:53:10.600Z,10.10
2019-04-13T16:55:43.799Z,22.20
2019-04-13T16:58:25.828Z,9.30
2019-04-13T17:01:02.509Z,10.17
2019-04-13T17:03:41.450Z,10.00
2019-04-13T17:06:11.786Z,9.27
2019-04-13T17:08:41.215Z,9.50
2019-04-13T17:11:09.731Z,9.60
2019-04-13T17:13:39.170Z,8.70
2019-04-13T17:16:07.618Z,9.70
2019-04-13T17:18:44.643Z,9.80
2019-04-13T17:21:14.890Z,9.27
2019-04-13T17:23:50.646Z,9.70
2019-04-13T17:26:33.515Z,9.83
2019-04-13T17:29:10.938Z,10.60
2019-04-13T17:31:50.042Z,10.40
2019-04-13T17:34:36.260Z,10.47
2019-04-13T17:37:06.995Z,12.00
2019-04-13T17:39:36.087Z,9.40
2019-04-13T17:42:29.500Z,10.37
2019-04-13T17:44:56.210Z,12.60
2019-04-13T17:47:26.623Z,10.40
2019-04-13T17:50:13.695Z,9.37
2019-04-13T17:52:44.355Z,9.80
2019-04-13T17:55:17.316Z,9.67
2019-04-13T17:57:51.649Z,11.70
2019-04-13T18:00:45.234Z,11.10
2019-04-13T18:03:32.770Z,11.60
2019-04-13T18:06:15.150Z,10.00
2019-04-13T18:09:01.952Z,10.30
2019-04-13T18:11:42.513Z,9.73
2019-04-13T18:14:13.104Z,11.87
2019-04-13T18:16:46.590Z,11.93
2019-04-13T18:19:17.053Z,10.80
2019-04-13T18:21:45.575Z,13.00
2019-04-13T18:24:14.122Z,10.80
2019-04-13T18:26:43.882Z,10.87
2019-04-13T18:29:13.100Z,11.93
2019-04-13T18:31:42.268Z,13.67
2019-04-13T18:34:10.864Z,11.50
2019-04-13T18:36:40.577Z,13.37
2019-04-13T18:39:09.317Z,12.23
2019-04-13T18:41:37.699Z,11.60
2019-04-13T18:44:07.248Z,12.83
2019-04-13T18:46:36.261Z,14.03
2019-04-13T18:49:05.310Z,14.43
2019-04-13T18:51:34.024Z,13.30
2019-04-13T18:54:03.084Z,13.77
2019-04-13T18:56:31.671Z,14.27
2019-04-13T18:59:00.071Z,15.40
2019-04-13T19:01:29.382Z,15.90
2019-04-13T19:03:57.803Z,15.33
2019-04-13T19:06:27.316Z,13.93
2019-04-13T19:08:56.031Z,13.77
2019-04-13T19:11:24.512Z,15.30
2019-04-13T19:13:52.932Z,16.50
2019-04-13T19:16:21.399Z,18.17
2019-04-13T19:18:49.794Z,17.27
2019-04-13T19:21:18.359Z,15.20
2019-04-13T19:23:46.795Z,15.70
2019-04-13T19:26:15.346Z,15.93
2019-04-13T19:28:43.747Z,15.77
2019-04-13T19:31:12.175Z,20.07
2019-04-13T19:33:40.626Z,18.90
2019-04-13T19:36:09.046Z,18.27
2019-04-13T19:38:37.487Z,17.97
2019-04-13T19:41:05.965Z,18.50
2019-04-13T19:43:34.399Z,17.63
2019-04-13T19:46:02.886Z,18.17
2019-04-13T19:48:31.320Z,18.83
2019-04-13T19:50:59.759Z,19.37
2019-04-13T19:53:29.793Z,19.83
2019-04-13T19:55:59.885Z,18.93
2019-04-13T19:58:28.306Z,19.50
2019-04-13T20:00:56.735Z,18.83
2019-04-13T20:03:25.254Z,26.03
2019-04-13T20:05:53.684Z,21.30
2019-04-13T20:08:22.142Z,18.50
2019-04-13T20:10:50.557Z,17.07
2019-04-13T20:13:30.875Z,16.90
2019-04-13T20:15:49.206Z,18.43
2019-04-13T20:18:17.684Z,15.90
2019-04-13T20:20:46.198Z,18.07
2019-04-13T20:23:14.608Z,17.77
2019-04-13T20:25:43.926Z,19.10
2019-04-13T20:28:13.622Z,17.37
2019-04-13T20:30:43.375Z,15.97
2019-04-13T20:33:13.155Z,16.73
2019-04-13T20:35:55.905Z,17.80
2019-04-13T20:38:12.918Z,16.93
2019-04-13T20:40:44.425Z,18.30
2019-04-13T20:43:14.695Z,15.80
2019-04-13T20:45:43.177Z,17.43
2019-04-13T20:48:11.884Z,17.30
2019-04-13T20:50:41.189Z,17.87
2019-04-13T20:53:09.671Z,17.97
2019-04-13T20:55:39.221Z,18.27
2019-04-13T20:58:07.780Z,17.57
2019-04-13T21:00:36.307Z,17.80
2019-04-13T21:03:05.876Z,18.77
2019-04-13T21:05:34.425Z,20.63
2019-04-13T21:08:04.041Z,21.23
2019-04-13T21:10:32.527Z,19.03
2019-04-13T21:13:01.005Z,19.50
2019-04-13T21:15:29.497Z,18.30
2019-04-13T21:17:57.924Z,19.50
2019-04-13T21:20:27.154Z,19.67
2019-04-13T21:22:55.641Z,19.00
2019-04-13T21:25:25.123Z,19.83
2019-04-13T21:27:53.612Z,20.27
2019-04-13T21:30:22.925Z,23.83
2019-04-13T21:32:51.402Z,22.70
2019-04-13T21:35:20.938Z,21.13
2019-04-13T21:37:50.791Z,20.77
2019-04-13T21:40:19.244Z,20.23
2019-04-13T21:42:47.682Z,21.80
2019-04-13T21:45:16.684Z,19.53
2019-04-13T21:47:45.233Z,20.43
2019-04-13T21:50:28.347Z,21.90
2019-04-13T21:53:04.919Z,21.43
2019-04-13T21:55:44.031Z,20.40
2019-04-13T21:58:12.575Z,23.00
2019-04-13T22:01:10.767Z,23.47
2019-04-13T22:03:40.513Z,23.50
2019-04-13T22:06:10.240Z,26.07
2019-04-13T22:08:38.807Z,23.97
2019-04-13T22:11:08.274Z,25.67
2019-04-13T22:13:36.731Z,27.23
2019-04-13T22:16:05.923Z,25.00
2019-04-13T22:18:34.604Z,26.37
2019-04-13T22:21:03.028Z,26.50
2019-04-13T22:23:32.475Z,25.97
2019-04-13T22:26:01.007Z,25.57
2019-04-13T22:28:34.367Z,25.70
2019-04-13T22:31:04.947Z,25.37
2019-04-13T22:33:33.483Z,26.37
2019-04-13T22:36:07.058Z,26.70
2019-04-13T22:38:35.536Z,25.70
2019-04-13T22:41:04.915Z,28.30
2019-04-13T22:43:34.720Z,26.37
2019-04-13T22:46:04.259Z,29.00
2019-04-13T22:48:40.130Z,29.17
2019-04-13T22:51:27.187Z,28.17
2019-04-13T22:54:10.036Z,29.47
2019-04-13T22:56:40.243Z,32.03
2019-04-13T22:59:09.712Z,28.90
2019-04-13T23:01:46.225Z,28.37
2019-04-13T23:04:14.727Z,27.47
2019-04-13T23:06:43.148Z,26.43
2019-04-13T23:09:12.761Z,27.73
2019-04-13T23:11:41.356Z,26.60
2019-04-13T23:14:11.050Z,28.53
2019-04-13T23:16:39.559Z,28.10
2019-04-13T23:19:09.047Z,30.63
2019-04-13T23:21:37.586Z,32.10
2019-04-13T23:24:06.072Z,30.43
2019-04-13T23:26:34.481Z,30.27
2019-04-13T23:29:04.151Z,28.80
2019-04-13T23:31:32.674Z,29.17
2019-04-13T23:34:01.100Z,29.40
2019-04-13T23:36:29.507Z,24.60
2019-04-13T23:38:57.942Z,23.60
2019-04-13T23:41:26.343Z,23.23
2019-04-13T23:43:54.763Z,22.00
2019-04-13T23:46:24.258Z,23.60
2019-04-13T23:48:52.770Z,22.50
2019-04-13T23:51:21.165Z,25.07
2019-04-13T23:53:49.589Z,25.53
2019-04-13T23:56:19.636Z,25.07
2019-04-13T23:58:49.679Z,23.07
